createdAt,value
2022-08-01T00:04:49.823Z,20.76
2022-08-01T00:10:13.880Z,20.69
2022-08-01T00:15:34.910Z,20.76
2022-08-01T00:20:55.907Z,20.73
2022-08-01T00:26:16.894Z,20.60
2022-08-01T00:31:37.916Z,20.53
2022-08-01T00:36:58.521Z,20.52
2022-08-01T00:42:19.375Z,20.55
2022-08-01T00:47:40.733Z,20.58
2022-08-01T00:53:02.232Z,20.60
2022-08-01T00:58:24.159Z,20.52
2022-08-01T01:03:58.516Z,20.43
2022-08-01T01:09:43.666Z,20.36
2022-08-01T01:15:28.043Z,20.34
2022-08-01T01:21:07.152Z,20.27
2022-08-01T01:26:46.592Z,20.23
2022-08-01T01:32:35.123Z,20.19
2022-08-01T01:38:18.981Z,20.22
2022-08-01T01:43:41.379Z,20.17
2022-08-01T01:49:02.813Z,20.04
2022-08-01T01:54:25.973Z,20.04
2022-08-01T01:59:50.822Z,20.07
2022-08-01T02:05:13.107Z,20.13
2022-08-01T02:10:36.230Z,20.05
2022-08-01T02:15:59.041Z,20.07
2022-08-01T02:21:27.683Z,20.03
2022-08-01T02:26:53.521Z,20.07
2022-08-01T02:32:23.463Z,20.04
2022-08-01T02:37:46.946Z,19.99
2022-08-01T02:43:09.265Z,19.97
2022-08-01T02:48:32.574Z,19.93
2022-08-01T02:53:57.351Z,19.93
2022-08-01T02:59:22.486Z,19.89
2022-08-01T03:04:44.995Z,19.88
2022-08-01T03:10:06.730Z,19.97
2022-08-01T03:15:29.078Z,19.98
2022-08-01T03:20:50.666Z,19.89
2022-08-01T03:26:12.287Z,19.87
2022-08-01T03:31:36.483Z,19.90
2022-08-01T03:37:03.530Z,20.00
2022-08-01T03:42:32.336Z,19.91
2022-08-01T03:48:02.508Z,19.87
2022-08-01T03:53:27.015Z,19.76
2022-08-01T03:58:50.029Z,19.79
2022-08-01T04:04:12.153Z,19.86
2022-08-01T04:09:33.795Z,19.98
2022-08-01T04:14:54.214Z,20.18
2022-08-01T04:20:16.724Z,20.46
2022-08-01T04:25:40.775Z,20.36
2022-08-01T04:31:02.397Z,20.41
2022-08-01T04:36:25.008Z,20.56
2022-08-01T04:41:50.217Z,20.64
2022-08-01T04:47:12.124Z,20.84
2022-08-01T04:52:38.001Z,21.07
2022-08-01T04:57:59.022Z,21.63
2022-08-01T05:03:21.194Z,21.60
2022-08-01T05:08:42.444Z,21.46
2022-08-01T05:14:02.977Z,21.65
2022-08-01T05:19:23.884Z,21.62
2022-08-01T05:24:44.877Z,21.62
2022-08-01T05:30:09.773Z,21.58
2022-08-01T05:35:48.150Z,21.55
2022-08-01T05:41:09.655Z,21.77
2022-08-01T05:46:31.786Z,21.92
2022-08-01T05:51:53.670Z,21.83
2022-08-01T05:57:14.815Z,21.76
2022-08-01T06:02:40.579Z,22.04
2022-08-01T06:08:01.167Z,22.40
2022-08-01T06:13:21.904Z,22.52
2022-08-01T06:18:43.073Z,22.67
2022-08-01T06:24:04.033Z,22.69
2022-08-01T06:29:25.608Z,23.12
2022-08-01T06:34:47.616Z,23.25
2022-08-01T06:40:16.242Z,23.13
2022-08-01T06:45:38.800Z,23.63
2022-08-01T06:51:14.742Z,23.87
2022-08-01T06:56:36.314Z,24.42
2022-08-01T07:01:56.963Z,24.65
2022-08-01T07:07:17.573Z,25.11
2022-08-01T07:12:39.160Z,25.15
2022-08-01T07:18:02.548Z,24.62
2022-08-01T07:23:23.235Z,23.97
2022-08-01T07:28:55.436Z,24.01
2022-08-01T07:34:16.496Z,23.95
2022-08-01T07:39:38.018Z,24.28
2022-08-01T07:44:58.558Z,24.56
2022-08-01T07:50:19.220Z,24.39
2022-08-01T07:55:39.926Z,24.40
2022-08-01T08:01:00.700Z,24.25
2022-08-01T08:06:21.556Z,24.02
2022-08-01T08:11:47.372Z,23.89
2022-08-01T08:17:08.657Z,23.89
2022-08-01T08:22:29.970Z,24.09
2022-08-01T08:27:51.394Z,24.22
2022-08-01T08:33:13.637Z,24.32
2022-08-01T08:38:34.243Z,24.12
2022-08-01T08:43:54.934Z,24.01
2022-08-01T08:49:22.098Z,23.89
2022-08-01T08:54:44.320Z,23.74
2022-08-01T09:00:06.072Z,23.84
2022-08-01T09:05:38.699Z,23.87
2022-08-01T09:11:00.348Z,23.95
2022-08-01T09:16:21.946Z,24.38
2022-08-01T09:22:04.749Z,24.49
2022-08-01T09:27:26.540Z,24.38
2022-08-01T09:33:06.217Z,24.20
2022-08-01T09:38:28.342Z,24.04
2022-08-01T09:43:51.317Z,23.75
2022-08-01T09:49:11.949Z,23.63
2022-08-01T09:54:34.950Z,23.86
2022-08-01T09:59:59.884Z,24.08
2022-08-01T10:05:36.830Z,24.18
2022-08-01T10:11:12.847Z,24.23
2022-08-01T10:16:36.778Z,24.17
2022-08-01T10:22:00.430Z,24.36
2022-08-01T10:27:24.247Z,24.56
2022-08-01T10:32:50.475Z,24.71
2022-08-01T10:38:13.764Z,24.60
2022-08-01T10:43:35.449Z,24.49
2022-08-01T10:49:05.322Z,24.35
2022-08-01T10:54:27.769Z,24.44
2022-08-01T11:00:01.022Z,24.51
2022-08-01T11:05:24.443Z,24.54
2022-08-01T11:10:45.259Z,24.60
2022-08-01T11:16:27.543Z,24.54
2022-08-01T11:22:01.248Z,24.76
2022-08-01T11:27:33.763Z,24.91
2022-08-01T11:33:11.188Z,24.95
2022-08-01T11:38:35.031Z,24.83
2022-08-01T11:44:14.666Z,24.78
2022-08-01T11:49:39.011Z,24.80
2022-08-01T11:55:03.100Z,24.68
2022-08-01T12:00:24.508Z,24.75
2022-08-01T12:05:45.452Z,24.69
2022-08-01T12:11:06.872Z,24.58
2022-08-01T12:16:32.297Z,24.67
2022-08-01T12:22:14.665Z,24.80
2022-08-01T12:27:36.667Z,24.85
2022-08-01T12:32:58.654Z,24.87
2022-08-01T12:38:24.090Z,24.91
2022-08-01T12:43:44.956Z,25.07
2022-08-01T12:49:05.895Z,25.04
2022-08-01T12:54:27.110Z,25.03
2022-08-01T12:59:47.834Z,24.88
2022-08-01T13:05:10.565Z,24.81
2022-08-01T13:10:31.948Z,24.93
2022-08-01T13:16:05.384Z,24.82
2022-08-01T13:21:28.467Z,24.83
2022-08-01T13:26:57.470Z,24.91
2022-08-01T13:32:28.710Z,24.90
2022-08-01T13:37:51.392Z,24.92
2022-08-01T13:43:12.359Z,25.02
2022-08-01T13:48:33.950Z,24.98
2022-08-01T13:53:55.491Z,25.09
2022-08-01T13:59:17.042Z,25.13
2022-08-01T14:04:37.868Z,25.11
2022-08-01T14:10:17.719Z,25.18
2022-08-01T14:15:39.918Z,25.10
2022-08-01T14:21:01.647Z,25.05
2022-08-01T14:26:26.708Z,24.96
2022-08-01T14:31:47.555Z,24.98
2022-08-01T14:37:09.391Z,25.17
2022-08-01T14:42:30.628Z,25.21
2022-08-01T14:47:51.545Z,25.12
2022-08-01T14:53:12.418Z,25.05
2022-08-01T14:58:33.809Z,24.96
2022-08-01T15:03:54.795Z,24.99
2022-08-01T15:09:15.498Z,25.00
2022-08-01T15:14:54.348Z,24.91
2022-08-01T15:20:15.329Z,24.96
2022-08-01T15:25:40.884Z,24.96
2022-08-01T15:31:02.979Z,24.88
2022-08-01T15:36:25.745Z,24.93
2022-08-01T15:41:47.144Z,24.89
2022-08-01T15:47:09.191Z,24.91
2022-08-01T15:52:30.941Z,24.93
2022-08-01T15:57:52.832Z,24.89
2022-08-01T16:03:13.600Z,24.79
2022-08-01T16:08:34.597Z,24.61
2022-08-01T16:13:55.163Z,24.54
2022-08-01T16:19:19.209Z,24.57
2022-08-01T16:24:40.168Z,24.57
2022-08-01T16:30:00.751Z,24.51
2022-08-01T16:35:21.526Z,24.40
2022-08-01T16:40:48.050Z,24.32
2022-08-01T16:46:09.709Z,24.09
2022-08-01T16:51:32.444Z,23.72
2022-08-01T16:56:58.175Z,23.39
2022-08-01T17:02:29.603Z,22.99
2022-08-01T17:07:50.248Z,22.67
2022-08-01T17:13:11.764Z,22.35
2022-08-01T17:18:32.648Z,22.13
2022-08-01T17:23:53.816Z,22.24
2022-08-01T17:29:14.626Z,22.33
2022-08-01T17:34:35.162Z,22.49
2022-08-01T17:39:55.691Z,22.53
2022-08-01T17:45:28.025Z,22.56
2022-08-01T17:50:50.272Z,22.64
2022-08-01T17:56:10.885Z,22.51
2022-08-01T18:01:31.794Z,22.38
2022-08-01T18:06:58.373Z,22.20
2022-08-01T18:12:20.051Z,22.15
2022-08-01T18:17:40.846Z,22.16
2022-08-01T18:23:01.496Z,22.17
2022-08-01T18:28:31.183Z,22.12
2022-08-01T18:33:53.712Z,22.03
2022-08-01T18:39:14.634Z,22.00
2022-08-01T18:44:36.951Z,21.94
2022-08-01T18:49:57.814Z,21.93
2022-08-01T18:55:18.654Z,21.74
2022-08-01T19:00:40.090Z,21.74
2022-08-01T19:06:01.196Z,21.71
2022-08-01T19:11:22.349Z,21.68
2022-08-01T19:16:43.008Z,21.65
2022-08-01T19:22:03.834Z,21.64
2022-08-01T19:27:30.440Z,21.59
2022-08-01T19:32:54.593Z,21.64
2022-08-01T19:38:15.341Z,21.59
2022-08-01T19:43:41.445Z,21.56
2022-08-01T19:49:04.642Z,21.53
2022-08-01T19:54:30.461Z,21.44
2022-08-01T19:59:52.174Z,21.41
2022-08-01T20:05:12.927Z,21.36
2022-08-01T20:10:34.418Z,21.21
2022-08-01T20:15:55.702Z,21.19
2022-08-01T20:21:17.432Z,21.17
2022-08-01T20:26:40.042Z,21.20
2022-08-01T20:32:01.994Z,21.19
2022-08-01T20:38:05.991Z,21.22
2022-08-01T20:43:03.777Z,21.35
2022-08-01T20:48:29.413Z,21.36
2022-08-01T20:53:52.650Z,21.23
2022-08-01T20:59:54.468Z,21.15
2022-08-01T21:05:06.376Z,21.16
2022-08-01T21:10:29.325Z,21.22
2022-08-01T21:16:23.309Z,21.10
2022-08-01T21:21:50.798Z,20.97
2022-08-01T21:27:17.171Z,20.89
2022-08-01T21:32:37.865Z,20.92
2022-08-01T21:38:01.670Z,20.80
2022-08-01T21:43:23.242Z,20.66
2022-08-01T21:48:46.394Z,20.67
2022-08-01T21:54:13.232Z,20.74
2022-08-01T21:59:51.374Z,20.76
2022-08-01T22:05:14.038Z,20.71
2022-08-01T22:10:36.394Z,20.60
2022-08-01T22:15:57.927Z,20.64
2022-08-01T22:21:19.642Z,20.59
2022-08-01T22:26:41.401Z,20.48
2022-08-01T22:32:03.131Z,20.41
2022-08-01T22:37:56.104Z,20.32
2022-08-01T22:43:15.652Z,20.20
2022-08-01T22:48:49.663Z,20.13
2022-08-01T22:54:16.178Z,20.03
2022-08-01T22:59:52.368Z,20.09
2022-08-01T23:05:20.795Z,20.21
2022-08-01T23:10:43.532Z,20.25
2022-08-01T23:16:05.049Z,20.16
2022-08-01T23:21:28.057Z,20.03
2022-08-01T23:26:50.569Z,20.01
2022-08-01T23:32:11.618Z,19.98
2022-08-01T23:37:33.163Z,20.04
2022-08-01T23:42:54.837Z,19.99
2022-08-01T23:48:15.851Z,19.97
2022-08-01T23:53:38.533Z,20.16
2022-08-01T23:58:59.799Z,20.15
